sensor_id;sensor_type;location;lat;lon;timestamp;P1;durP1;ratioP1;P2;durP2;ratioP2
34585;SDS011;20816;50.950;11.108;2024-02-26T00:01:04;1.20;;;0.63;;
34585;SDS011;20816;50.950;11.108;2024-02-26T00:03:31;1.20;;;0.90;;
34585;SDS011;20816;50.950;11.108;2024-02-26T00:05:59;1.33;;;1.00;;
34585;SDS011;20816;50.950;11.108;2024-02-26T00:08:26;2.50;;;1.23;;
34585;SDS011;20816;50.950;11.108;2024-02-26T00:10:53;2.00;;;1.23;;
34585;SDS011;20816;50.950;11.108;2024-02-26T00:13:20;1.07;;;0.87;;
34585;SDS011;20816;50.950;11.108;2024-02-26T00:15:48;0.80;;;0.80;;
34585;SDS011;20816;50.950;11.108;2024-02-26T00:18:15;1.47;;;0.97;;
34585;SDS011;20816;50.950;11.108;2024-02-26T00:20:42;1.20;;;1.10;;
34585;SDS011;20816;50.950;11.108;2024-02-26T00:23:09;3.83;;;1.03;;
34585;SDS011;20816;50.950;11.108;2024-02-26T00:25:36;2.10;;;1.27;;
34585;SDS011;20816;50.950;11.108;2024-02-26T00:28:04;1.67;;;1.30;;
34585;SDS011;20816;50.950;11.108;2024-02-26T00:30:31;0.70;;;0.63;;
34585;SDS011;20816;50.950;11.108;2024-02-26T00:32:58;1.37;;;1.00;;
34585;SDS011;20816;50.950;11.108;2024-02-26T00:35:25;1.80;;;1.60;;
34585;SDS011;20816;50.950;11.108;2024-02-26T00:37:51;0.93;;;0.80;;
34585;SDS011;20816;50.950;11.108;2024-02-26T00:40:18;1.80;;;0.80;;
34585;SDS011;20816;50.950;11.108;2024-02-26T00:42:45;2.00;;;0.80;;
34585;SDS011;20816;50.950;11.108;2024-02-26T00:45:12;0.73;;;0.50;;
34585;SDS011;20816;50.950;11.108;2024-02-26T00:47:39;3.37;;;1.10;;
34585;SDS011;20816;50.950;11.108;2024-02-26T00:50:07;0.93;;;0.83;;
34585;SDS011;20816;50.950;11.108;2024-02-26T00:52:35;2.93;;;1.67;;
34585;SDS011;20816;50.950;11.108;2024-02-26T00:55:02;1.27;;;0.70;;
34585;SDS011;20816;50.950;11.108;2024-02-26T00:57:29;0.60;;;0.60;;
34585;SDS011;20816;50.950;11.108;2024-02-26T00:59:56;2.10;;;0.80;;
34585;SDS011;20816;50.950;11.108;2024-02-26T01:02:23;2.47;;;0.93;;
34585;SDS011;20816;50.950;11.108;2024-02-26T01:04:50;1.10;;;0.70;;
34585;SDS011;20816;50.950;11.108;2024-02-26T01:07:17;0.97;;;0.43;;
34585;SDS011;20816;50.950;11.108;2024-02-26T01:09:44;2.63;;;1.33;;
34585;SDS011;20816;50.950;11.108;2024-02-26T01:12:10;1.90;;;0.63;;
34585;SDS011;20816;50.950;11.108;2024-02-26T01:14:37;3.93;;;1.60;;
34585;SDS011;20816;50.950;11.108;2024-02-26T01:17:04;0.73;;;0.50;;
34585;SDS011;20816;50.950;11.108;2024-02-26T01:19:31;0.40;;;0.40;;
34585;SDS011;20816;50.950;11.108;2024-02-26T01:21:58;2.33;;;1.57;;
34585;SDS011;20816;50.950;11.108;2024-02-26T01:24:24;0.73;;;0.73;;
34585;SDS011;20816;50.950;11.108;2024-02-26T01:26:51;3.87;;;1.33;;
34585;SDS011;20816;50.950;11.108;2024-02-26T01:29:17;0.87;;;0.87;;
34585;SDS011;20816;50.950;11.108;2024-02-26T01:31:44;0.80;;;0.80;;
34585;SDS011;20816;50.950;11.108;2024-02-26T01:34:11;2.70;;;1.20;;
34585;SDS011;20816;50.950;11.108;2024-02-26T01:36:37;0.50;;;0.50;;
34585;SDS011;20816;50.950;11.108;2024-02-26T01:39:04;2.93;;;0.70;;
34585;SDS011;20816;50.950;11.108;2024-02-26T01:41:31;0.73;;;0.73;;
34585;SDS011;20816;50.950;11.108;2024-02-26T01:43:58;0.70;;;0.50;;
34585;SDS011;20816;50.950;11.108;2024-02-26T01:46:24;1.03;;;0.57;;
34585;SDS011;20816;50.950;11.108;2024-02-26T01:48:51;0.60;;;0.60;;
34585;SDS011;20816;50.950;11.108;2024-02-26T01:51:18;2.03;;;0.87;;
34585;SDS011;20816;50.950;11.108;2024-02-26T01:53:45;3.07;;;0.77;;
34585;SDS011;20816;50.950;11.108;2024-02-26T01:56:12;1.17;;;0.63;;
34585;SDS011;20816;50.950;11.108;2024-02-26T01:58:41;3.90;;;0.93;;
34585;SDS011;20816;50.950;11.108;2024-02-26T02:01:08;1.10;;;1.00;;
34585;SDS011;20816;50.950;11.108;2024-02-26T02:03:36;3.03;;;1.17;;
34585;SDS011;20816;50.950;11.108;2024-02-26T02:06:03;0.70;;;0.70;;
34585;SDS011;20816;50.950;11.108;2024-02-26T02:08:31;1.47;;;1.10;;
34585;SDS011;20816;50.950;11.108;2024-02-26T02:10:58;1.17;;;0.87;;
34585;SDS011;20816;50.950;11.108;2024-02-26T02:13:26;2.90;;;1.13;;
34585;SDS011;20816;50.950;11.108;2024-02-26T02:15:52;2.07;;;1.10;;
34585;SDS011;20816;50.950;11.108;2024-02-26T02:18:19;0.63;;;0.63;;
34585;SDS011;20816;50.950;11.108;2024-02-26T02:20:46;1.00;;;0.90;;
34585;SDS011;20816;50.950;11.108;2024-02-26T02:23:13;0.90;;;0.80;;
34585;SDS011;20816;50.950;11.108;2024-02-26T02:25:40;1.53;;;1.03;;
34585;SDS011;20816;50.950;11.108;2024-02-26T02:28:07;0.80;;;0.80;;
34585;SDS011;20816;50.950;11.108;2024-02-26T02:30:33;1.93;;;1.23;;
34585;SDS011;20816;50.950;11.108;2024-02-26T02:33:02;1.50;;;1.33;;
34585;SDS011;20816;50.950;11.108;2024-02-26T02:35:29;1.67;;;1.10;;
34585;SDS011;20816;50.950;11.108;2024-02-26T02:37:56;1.03;;;0.93;;
34585;SDS011;20816;50.950;11.108;2024-02-26T02:40:23;1.27;;;0.90;;
34585;SDS011;20816;50.950;11.108;2024-02-26T02:42:50;1.10;;;1.00;;
34585;SDS011;20816;50.950;11.108;2024-02-26T02:45:17;1.13;;;0.87;;
34585;SDS011;20816;50.950;11.108;2024-02-26T02:47:44;1.13;;;1.03;;
34585;SDS011;20816;50.950;11.108;2024-02-26T02:50:11;1.13;;;0.90;;
34585;SDS011;20816;50.950;11.108;2024-02-26T02:52:38;1.37;;;1.27;;
34585;SDS011;20816;50.950;11.108;2024-02-26T02:55:04;2.43;;;1.30;;
34585;SDS011;20816;50.950;11.108;2024-02-26T02:57:31;0.80;;;0.80;;
34585;SDS011;20816;50.950;11.108;2024-02-26T02:59:59;2.10;;;0.63;;
34585;SDS011;20816;50.950;11.108;2024-02-26T03:02:26;1.27;;;1.00;;
34585;SDS011;20816;50.950;11.108;2024-02-26T03:04:53;1.50;;;0.73;;
34585;SDS011;20816;50.950;11.108;2024-02-26T03:07:20;0.50;;;0.50;;
34585;SDS011;20816;50.950;11.108;2024-02-26T03:09:47;2.23;;;1.73;;
34585;SDS011;20816;50.950;11.108;2024-02-26T03:12:13;1.70;;;1.60;;
34585;SDS011;20816;50.950;11.108;2024-02-26T03:14:40;0.87;;;0.83;;
34585;SDS011;20816;50.950;11.108;2024-02-26T03:17:07;2.30;;;0.63;;
34585;SDS011;20816;50.950;11.108;2024-02-26T03:19:34;1.03;;;0.93;;
34585;SDS011;20816;50.950;11.108;2024-02-26T03:22:01;1.43;;;0.77;;
34585;SDS011;20816;50.950;11.108;2024-02-26T03:24:28;0.67;;;0.53;;
34585;SDS011;20816;50.950;11.108;2024-02-26T03:26:55;1.53;;;1.03;;
34585;SDS011;20816;50.950;11.108;2024-02-26T03:29:22;1.40;;;0.93;;
34585;SDS011;20816;50.950;11.108;2024-02-26T03:31:49;0.70;;;0.67;;
34585;SDS011;20816;50.950;11.108;2024-02-26T03:34:15;1.60;;;1.13;;
34585;SDS011;20816;50.950;11.108;2024-02-26T03:36:44;0.70;;;0.70;;
34585;SDS011;20816;50.950;11.108;2024-02-26T03:39:11;1.33;;;1.23;;
34585;SDS011;20816;50.950;11.108;2024-02-26T03:41:38;2.30;;;1.33;;
34585;SDS011;20816;50.950;11.108;2024-02-26T03:44:05;2.50;;;0.90;;
34585;SDS011;20816;50.950;11.108;2024-02-26T03:46:31;2.80;;;1.23;;
34585;SDS011;20816;50.950;11.108;2024-02-26T03:48:58;0.50;;;0.50;;
34585;SDS011;20816;50.950;11.108;2024-02-26T03:51:25;1.60;;;1.33;;
34585;SDS011;20816;50.950;11.108;2024-02-26T03:53:53;0.70;;;0.70;;
34585;SDS011;20816;50.950;11.108;2024-02-26T03:56:19;1.87;;;1.50;;
34585;SDS011;20816;50.950;11.108;2024-02-26T03:58:47;3.30;;;1.67;;
34585;SDS011;20816;50.950;11.108;2024-02-26T04:01:13;1.97;;;1.77;;
34585;SDS011;20816;50.950;11.108;2024-02-26T04:03:40;0.60;;;0.57;;
34585;SDS011;20816;50.950;11.108;2024-02-26T04:06:09;2.87;;;0.60;;
34585;SDS011;20816;50.950;11.108;2024-02-26T04:08:46;0.87;;;0.70;;
34585;SDS011;20816;50.950;11.108;2024-02-26T04:11:13;1.90;;;1.53;;
34585;SDS011;20816;50.950;11.108;2024-02-26T04:13:44;1.80;;;1.43;;
34585;SDS011;20816;50.950;11.108;2024-02-26T04:16:15;1.23;;;1.13;;
34585;SDS011;20816;50.950;11.108;2024-02-26T04:18:42;0.93;;;0.70;;
34585;SDS011;20816;50.950;11.108;2024-02-26T04:21:09;1.37;;;1.07;;
34585;SDS011;20816;50.950;11.108;2024-02-26T04:23:36;1.17;;;1.13;;
34585;SDS011;20816;50.950;11.108;2024-02-26T04:26:04;5.20;;;2.20;;
34585;SDS011;20816;50.950;11.108;2024-02-26T04:28:31;2.23;;;1.93;;
34585;SDS011;20816;50.950;11.108;2024-02-26T04:30:58;1.63;;;1.40;;
34585;SDS011;20816;50.950;11.108;2024-02-26T04:33:25;6.73;;;1.60;;
34585;SDS011;20816;50.950;11.108;2024-02-26T04:35:51;1.47;;;1.30;;
34585;SDS011;20816;50.950;11.108;2024-02-26T04:38:18;1.47;;;1.37;;
34585;SDS011;20816;50.950;11.108;2024-02-26T04:40:45;2.47;;;1.30;;
34585;SDS011;20816;50.950;11.108;2024-02-26T04:43:13;1.70;;;1.30;;
34585;SDS011;20816;50.950;11.108;2024-02-26T04:45:40;1.83;;;1.23;;
34585;SDS011;20816;50.950;11.108;2024-02-26T04:48:07;3.10;;;1.33;;
34585;SDS011;20816;50.950;11.108;2024-02-26T04:50:34;1.57;;;1.10;;
34585;SDS011;20816;50.950;11.108;2024-02-26T04:53:01;4.33;;;2.07;;
34585;SDS011;20816;50.950;11.108;2024-02-26T04:55:27;4.80;;;1.73;;
34585;SDS011;20816;50.950;11.108;2024-02-26T04:57:54;1.50;;;1.30;;
34585;SDS011;20816;50.950;11.108;2024-02-26T05:00:20;2.80;;;1.47;;
34585;SDS011;20816;50.950;11.108;2024-02-26T05:02:47;4.87;;;1.20;;
34585;SDS011;20816;50.950;11.108;2024-02-26T05:05:14;1.57;;;1.30;;
34585;SDS011;20816;50.950;11.108;2024-02-26T05:07:41;3.13;;;1.23;;
34585;SDS011;20816;50.950;11.108;2024-02-26T05:10:09;1.67;;;1.20;;
34585;SDS011;20816;50.950;11.108;2024-02-26T05:12:36;2.17;;;1.60;;
34585;SDS011;20816;50.950;11.108;2024-02-26T05:15:03;2.10;;;1.70;;
34585;SDS011;20816;50.950;11.108;2024-02-26T05:17:30;2.70;;;1.57;;
34585;SDS011;20816;50.950;11.108;2024-02-26T05:19:57;1.57;;;1.47;;
34585;SDS011;20816;50.950;11.108;2024-02-26T05:22:23;2.87;;;1.87;;
34585;SDS011;20816;50.950;11.108;2024-02-26T05:24:50;1.60;;;1.40;;
34585;SDS011;20816;50.950;11.108;2024-02-26T05:27:17;2.67;;;1.30;;
34585;SDS011;20816;50.950;11.108;2024-02-26T05:29:44;3.73;;;1.63;;
34585;SDS011;20816;50.950;11.108;2024-02-26T05:32:11;5.60;;;2.00;;
34585;SDS011;20816;50.950;11.108;2024-02-26T05:34:38;4.87;;;1.90;;
34585;SDS011;20816;50.950;11.108;2024-02-26T05:37:04;2.37;;;1.70;;
34585;SDS011;20816;50.950;11.108;2024-02-26T05:39:31;4.80;;;1.97;;
34585;SDS011;20816;50.950;11.108;2024-02-26T05:41:58;5.10;;;1.97;;
34585;SDS011;20816;50.950;11.108;2024-02-26T05:44:26;6.23;;;2.03;;
34585;SDS011;20816;50.950;11.108;2024-02-26T05:46:53;3.93;;;2.47;;
34585;SDS011;20816;50.950;11.108;2024-02-26T05:49:19;5.60;;;1.70;;
34585;SDS011;20816;50.950;11.108;2024-02-26T05:51:47;3.90;;;1.90;;
34585;SDS011;20816;50.950;11.108;2024-02-26T05:54:14;3.07;;;1.57;;
34585;SDS011;20816;50.950;11.108;2024-02-26T05:56:40;3.27;;;1.57;;
34585;SDS011;20816;50.950;11.108;2024-02-26T05:59:07;2.27;;;1.77;;
34585;SDS011;20816;50.950;11.108;2024-02-26T06:01:34;2.70;;;1.70;;
34585;SDS011;20816;50.950;11.108;2024-02-26T06:04:01;2.73;;;2.03;;
34585;SDS011;20816;50.950;11.108;2024-02-26T06:06:28;10.83;;;4.50;;
34585;SDS011;20816;50.950;11.108;2024-02-26T06:08:54;4.10;;;2.73;;
34585;SDS011;20816;50.950;11.108;2024-02-26T06:11:21;4.00;;;1.87;;
34585;SDS011;20816;50.950;11.108;2024-02-26T06:13:49;3.47;;;1.87;;
34585;SDS011;20816;50.950;11.108;2024-02-26T06:16:16;2.93;;;2.17;;
34585;SDS011;20816;50.950;11.108;2024-02-26T06:18:42;3.07;;;1.77;;
34585;SDS011;20816;50.950;11.108;2024-02-26T06:21:10;1.93;;;1.30;;
34585;SDS011;20816;50.950;11.108;2024-02-26T06:23:38;4.10;;;2.13;;
34585;SDS011;20816;50.950;11.108;2024-02-26T06:26:06;3.83;;;1.60;;
34585;SDS011;20816;50.950;11.108;2024-02-26T06:28:33;5.40;;;1.60;;
34585;SDS011;20816;50.950;11.108;2024-02-26T06:31:02;1.67;;;1.37;;
34585;SDS011;20816;50.950;11.108;2024-02-26T06:33:29;2.87;;;2.07;;
34585;SDS011;20816;50.950;11.108;2024-02-26T06:35:56;4.20;;;2.30;;
34585;SDS011;20816;50.950;11.108;2024-02-26T06:38:22;3.77;;;2.03;;
34585;SDS011;20816;50.950;11.108;2024-02-26T06:40:49;2.70;;;1.83;;
34585;SDS011;20816;50.950;11.108;2024-02-26T06:43:16;5.33;;;1.90;;
34585;SDS011;20816;50.950;11.108;2024-02-26T06:45:43;2.67;;;2.10;;
34585;SDS011;20816;50.950;11.108;2024-02-26T06:48:10;4.43;;;2.53;;
34585;SDS011;20816;50.950;11.108;2024-02-26T06:50:36;4.40;;;2.23;;
34585;SDS011;20816;50.950;11.108;2024-02-26T06:53:03;4.37;;;1.43;;
34585;SDS011;20816;50.950;11.108;2024-02-26T06:55:30;3.93;;;2.23;;
34585;SDS011;20816;50.950;11.108;2024-02-26T06:57:57;2.73;;;1.83;;
34585;SDS011;20816;50.950;11.108;2024-02-26T07:00:23;5.67;;;2.70;;
34585;SDS011;20816;50.950;11.108;2024-02-26T07:02:50;3.63;;;2.30;;
34585;SDS011;20816;50.950;11.108;2024-02-26T07:05:17;5.30;;;2.50;;
34585;SDS011;20816;50.950;11.108;2024-02-26T07:07:44;4.13;;;2.53;;
34585;SDS011;20816;50.950;11.108;2024-02-26T07:10:10;2.37;;;1.77;;
34585;SDS011;20816;50.950;11.108;2024-02-26T07:12:39;5.93;;;3.27;;
34585;SDS011;20816;50.950;11.108;2024-02-26T07:15:06;4.03;;;1.67;;
34585;SDS011;20816;50.950;11.108;2024-02-26T07:17:34;4.83;;;2.57;;
34585;SDS011;20816;50.950;11.108;2024-02-26T07:20:02;3.53;;;2.20;;
34585;SDS011;20816;50.950;11.108;2024-02-26T07:22:35;3.67;;;2.03;;
34585;SDS011;20816;50.950;11.108;2024-02-26T07:25:02;7.67;;;2.40;;
34585;SDS011;20816;50.950;11.108;2024-02-26T07:27:30;4.23;;;2.60;;
34585;SDS011;20816;50.950;11.108;2024-02-26T07:29:57;3.30;;;2.70;;
34585;SDS011;20816;50.950;11.108;2024-02-26T07:32:23;7.70;;;3.77;;
34585;SDS011;20816;50.950;11.108;2024-02-26T07:34:50;5.10;;;3.77;;
34585;SDS011;20816;50.950;11.108;2024-02-26T07:37:17;6.17;;;3.10;;
34585;SDS011;20816;50.950;11.108;2024-02-26T07:39:44;3.33;;;2.63;;
34585;SDS011;20816;50.950;11.108;2024-02-26T07:42:11;4.57;;;3.20;;
34585;SDS011;20816;50.950;11.108;2024-02-26T07:44:38;6.43;;;3.50;;
34585;SDS011;20816;50.950;11.108;2024-02-26T07:47:05;4.67;;;3.03;;
34585;SDS011;20816;50.950;11.108;2024-02-26T07:49:31;9.00;;;3.93;;
34585;SDS011;20816;50.950;11.108;2024-02-26T07:52:02;6.33;;;3.73;;
34585;SDS011;20816;50.950;11.108;2024-02-26T07:54:29;7.53;;;3.33;;
34585;SDS011;20816;50.950;11.108;2024-02-26T07:56:56;7.60;;;4.10;;
34585;SDS011;20816;50.950;11.108;2024-02-26T07:59:23;7.83;;;4.20;;
34585;SDS011;20816;50.950;11.108;2024-02-26T08:01:51;11.10;;;4.03;;
34585;SDS011;20816;50.950;11.108;2024-02-26T08:04:23;5.43;;;3.67;;
34585;SDS011;20816;50.950;11.108;2024-02-26T08:06:51;7.37;;;3.67;;
34585;SDS011;20816;50.950;11.108;2024-02-26T08:09:18;7.40;;;3.23;;
34585;SDS011;20816;50.950;11.108;2024-02-26T08:11:44;8.27;;;4.07;;
34585;SDS011;20816;50.950;11.108;2024-02-26T08:14:11;7.57;;;4.03;;
34585;SDS011;20816;50.950;11.108;2024-02-26T08:16:38;7.73;;;4.17;;
34585;SDS011;20816;50.950;11.108;2024-02-26T08:19:05;6.27;;;4.53;;
34585;SDS011;20816;50.950;11.108;2024-02-26T08:21:32;8.57;;;4.47;;
34585;SDS011;20816;50.950;11.108;2024-02-26T08:23:58;8.93;;;4.13;;
34585;SDS011;20816;50.950;11.108;2024-02-26T08:26:25;9.13;;;4.60;;
34585;SDS011;20816;50.950;11.108;2024-02-26T08:28:52;11.47;;;5.20;;
34585;SDS011;20816;50.950;11.108;2024-02-26T08:31:21;8.00;;;5.03;;
34585;SDS011;20816;50.950;11.108;2024-02-26T08:33:47;5.63;;;4.17;;
34585;SDS011;20816;50.950;11.108;2024-02-26T08:36:14;5.80;;;4.17;;
34585;SDS011;20816;50.950;11.108;2024-02-26T08:38:41;7.17;;;4.57;;
34585;SDS011;20816;50.950;11.108;2024-02-26T08:41:08;11.47;;;5.10;;
34585;SDS011;20816;50.950;11.108;2024-02-26T08:43:35;11.63;;;5.93;;
34585;SDS011;20816;50.950;11.108;2024-02-26T08:46:01;9.07;;;4.37;;
34585;SDS011;20816;50.950;11.108;2024-02-26T08:48:29;13.47;;;4.70;;
34585;SDS011;20816;50.950;11.108;2024-02-26T08:50:56;9.67;;;4.07;;
34585;SDS011;20816;50.950;11.108;2024-02-26T08:53:23;5.50;;;3.70;;
34585;SDS011;20816;50.950;11.108;2024-02-26T08:56:03;8.58;;;3.76;;
34585;SDS011;20816;50.950;11.108;2024-02-26T08:58:30;8.40;;;4.07;;
34585;SDS011;20816;50.950;11.108;2024-02-26T09:00:57;8.90;;;4.63;;
34585;SDS011;20816;50.950;11.108;2024-02-26T09:03:24;11.03;;;5.00;;
34585;SDS011;20816;50.950;11.108;2024-02-26T09:05:52;10.47;;;5.13;;
34585;SDS011;20816;50.950;11.108;2024-02-26T09:08:19;9.80;;;5.27;;
34585;SDS011;20816;50.950;11.108;2024-02-26T09:10:46;13.50;;;6.00;;
34585;SDS011;20816;50.950;11.108;2024-02-26T09:13:12;12.73;;;6.80;;
34585;SDS011;20816;50.950;11.108;2024-02-26T09:15:39;14.37;;;7.73;;
34585;SDS011;20816;50.950;11.108;2024-02-26T09:18:06;14.47;;;6.10;;
34585;SDS011;20816;50.950;11.108;2024-02-26T09:20:33;11.60;;;6.60;;
34585;SDS011;20816;50.950;11.108;2024-02-26T09:23:00;15.83;;;7.10;;
34585;SDS011;20816;50.950;11.108;2024-02-26T09:25:27;15.40;;;7.57;;
34585;SDS011;20816;50.950;11.108;2024-02-26T09:27:54;13.83;;;8.30;;
34585;SDS011;20816;50.950;11.108;2024-02-26T09:30:21;17.10;;;7.07;;
34585;SDS011;20816;50.950;11.108;2024-02-26T09:32:47;17.40;;;7.93;;
34585;SDS011;20816;50.950;11.108;2024-02-26T09:35:14;17.53;;;8.67;;
34585;SDS011;20816;50.950;11.108;2024-02-26T09:37:42;13.20;;;7.17;;
34585;SDS011;20816;50.950;11.108;2024-02-26T09:40:10;17.07;;;7.70;;
34585;SDS011;20816;50.950;11.108;2024-02-26T09:42:41;19.07;;;7.90;;
34585;SDS011;20816;50.950;11.108;2024-02-26T09:45:11;15.90;;;8.57;;
34585;SDS011;20816;50.950;11.108;2024-02-26T09:47:44;14.83;;;5.83;;
34585;SDS011;20816;50.950;11.108;2024-02-26T09:50:12;15.43;;;7.93;;
34585;SDS011;20816;50.950;11.108;2024-02-26T09:52:41;16.03;;;6.90;;
34585;SDS011;20816;50.950;11.108;2024-02-26T09:55:09;11.77;;;6.23;;
34585;SDS011;20816;50.950;11.108;2024-02-26T09:57:36;14.63;;;8.87;;
34585;SDS011;20816;50.950;11.108;2024-02-26T10:00:04;19.00;;;7.77;;
34585;SDS011;20816;50.950;11.108;2024-02-26T10:02:36;14.70;;;7.67;;
34585;SDS011;20816;50.950;11.108;2024-02-26T10:05:05;14.70;;;7.53;;
34585;SDS011;20816;50.950;11.108;2024-02-26T10:07:36;15.70;;;7.67;;
34585;SDS011;20816;50.950;11.108;2024-02-26T10:10:04;15.27;;;8.03;;
34585;SDS011;20816;50.950;11.108;2024-02-26T10:12:31;19.00;;;8.27;;
34585;SDS011;20816;50.950;11.108;2024-02-26T10:14:59;17.27;;;8.33;;
34585;SDS011;20816;50.950;11.108;2024-02-26T10:17:25;15.30;;;7.43;;
34585;SDS011;20816;50.950;11.108;2024-02-26T10:19:53;17.77;;;7.77;;
34585;SDS011;20816;50.950;11.108;2024-02-26T10:22:23;14.33;;;7.87;;
34585;SDS011;20816;50.950;11.108;2024-02-26T10:24:50;23.90;;;7.70;;
34585;SDS011;20816;50.950;11.108;2024-02-26T10:27:16;11.87;;;7.07;;
34585;SDS011;20816;50.950;11.108;2024-02-26T10:29:45;15.80;;;8.00;;
34585;SDS011;20816;50.950;11.108;2024-02-26T10:32:13;15.50;;;8.47;;
34585;SDS011;20816;50.950;11.108;2024-02-26T10:34:40;10.83;;;6.73;;
34585;SDS011;20816;50.950;11.108;2024-02-26T10:37:08;15.83;;;7.87;;
34585;SDS011;20816;50.950;11.108;2024-02-26T10:39:36;16.47;;;7.30;;
34585;SDS011;20816;50.950;11.108;2024-02-26T10:42:04;12.87;;;7.07;;
34585;SDS011;20816;50.950;11.108;2024-02-26T10:44:36;13.37;;;6.73;;
34585;SDS011;20816;50.950;11.108;2024-02-26T10:47:03;16.63;;;7.80;;
34585;SDS011;20816;50.950;11.108;2024-02-26T10:49:30;14.27;;;7.87;;
34585;SDS011;20816;50.950;11.108;2024-02-26T10:51:57;15.23;;;6.70;;
34585;SDS011;20816;50.950;11.108;2024-02-26T10:54:25;18.10;;;6.97;;
34585;SDS011;20816;50.950;11.108;2024-02-26T10:56:55;11.53;;;6.10;;
34585;SDS011;20816;50.950;11.108;2024-02-26T10:59:24;12.20;;;6.83;;
34585;SDS011;20816;50.950;11.108;2024-02-26T11:01:51;10.47;;;6.73;;
34585;SDS011;20816;50.950;11.108;2024-02-26T11:04:18;18.30;;;8.30;;
34585;SDS011;20816;50.950;11.108;2024-02-26T11:06:46;15.27;;;7.30;;
34585;SDS011;20816;50.950;11.108;2024-02-26T11:09:14;14.90;;;6.77;;
34585;SDS011;20816;50.950;11.108;2024-02-26T11:11:42;15.60;;;8.40;;
34585;SDS011;20816;50.950;11.108;2024-02-26T11:14:11;17.13;;;7.77;;
34585;SDS011;20816;50.950;11.108;2024-02-26T11:16:39;18.70;;;7.73;;
34585;SDS011;20816;50.950;11.108;2024-02-26T11:19:09;14.27;;;7.37;;
34585;SDS011;20816;50.950;11.108;2024-02-26T11:21:38;14.17;;;7.67;;
34585;SDS011;20816;50.950;11.108;2024-02-26T11:24:15;13.77;;;7.83;;
34585;SDS011;20816;50.950;11.108;2024-02-26T11:26:48;12.20;;;6.90;;
34585;SDS011;20816;50.950;11.108;2024-02-26T11:29:32;19.00;;;7.83;;
34585;SDS011;20816;50.950;11.108;2024-02-26T11:32:05;11.33;;;7.00;;
34585;SDS011;20816;50.950;11.108;2024-02-26T11:34:33;18.33;;;8.03;;
34585;SDS011;20816;50.950;11.108;2024-02-26T11:37:10;10.30;;;6.43;;
34585;SDS011;20816;50.950;11.108;2024-02-26T11:39:37;17.40;;;8.27;;
34585;SDS011;20816;50.950;11.108;2024-02-26T11:42:06;14.50;;;7.20;;
34585;SDS011;20816;50.950;11.108;2024-02-26T11:44:35;13.77;;;7.77;;
34585;SDS011;20816;50.950;11.108;2024-02-26T11:47:09;12.13;;;7.77;;
34585;SDS011;20816;50.950;11.108;2024-02-26T11:49:46;16.53;;;8.17;;
34585;SDS011;20816;50.950;11.108;2024-02-26T11:52:14;13.97;;;8.60;;
34585;SDS011;20816;50.950;11.108;2024-02-26T11:54:49;13.30;;;6.43;;
34585;SDS011;20816;50.950;11.108;2024-02-26T11:57:29;13.93;;;8.30;;
34585;SDS011;20816;50.950;11.108;2024-02-26T12:00:10;17.60;;;8.60;;
34585;SDS011;20816;50.950;11.108;2024-02-26T12:05:13;12.83;;;7.67;;
34585;SDS011;20816;50.950;11.108;2024-02-26T12:07:46;10.57;;;6.57;;
34585;SDS011;20816;50.950;11.108;2024-02-26T12:12:58;9.37;;;6.40;;
34585;SDS011;20816;50.950;11.108;2024-02-26T12:15:31;10.53;;;6.50;;
34585;SDS011;20816;50.950;11.108;2024-02-26T12:18:01;19.00;;;8.13;;
34585;SDS011;20816;50.950;11.108;2024-02-26T12:20:29;15.47;;;7.77;;
34585;SDS011;20816;50.950;11.108;2024-02-26T12:22:56;18.07;;;8.03;;
34585;SDS011;20816;50.950;11.108;2024-02-26T12:25:24;14.33;;;8.23;;
34585;SDS011;20816;50.950;11.108;2024-02-26T12:27:53;17.50;;;8.93;;
34585;SDS011;20816;50.950;11.108;2024-02-26T12:30:21;14.70;;;7.97;;
34585;SDS011;20816;50.950;11.108;2024-02-26T12:32:49;14.30;;;6.60;;
34585;SDS011;20816;50.950;11.108;2024-02-26T12:35:17;10.70;;;6.63;;
34585;SDS011;20816;50.950;11.108;2024-02-26T12:37:44;14.73;;;7.17;;
34585;SDS011;20816;50.950;11.108;2024-02-26T12:40:11;13.40;;;7.27;;
34585;SDS011;20816;50.950;11.108;2024-02-26T12:42:39;12.30;;;7.13;;
34585;SDS011;20816;50.950;11.108;2024-02-26T12:45:07;11.90;;;6.73;;
34585;SDS011;20816;50.950;11.108;2024-02-26T12:47:36;10.63;;;6.33;;
34585;SDS011;20816;50.950;11.108;2024-02-26T12:50:04;15.13;;;7.03;;
34585;SDS011;20816;50.950;11.108;2024-02-26T12:52:35;13.10;;;6.03;;
34585;SDS011;20816;50.950;11.108;2024-02-26T12:55:05;14.73;;;8.00;;
34585;SDS011;20816;50.950;11.108;2024-02-26T12:57:38;11.70;;;6.73;;
34585;SDS011;20816;50.950;11.108;2024-02-26T13:00:05;21.57;;;9.60;;
34585;SDS011;20816;50.950;11.108;2024-02-26T13:02:36;10.03;;;6.20;;
34585;SDS011;20816;50.950;11.108;2024-02-26T13:05:04;13.30;;;6.97;;
34585;SDS011;20816;50.950;11.108;2024-02-26T13:07:34;11.40;;;6.87;;
34585;SDS011;20816;50.950;11.108;2024-02-26T13:10:07;13.23;;;6.53;;
34585;SDS011;20816;50.950;11.108;2024-02-26T13:12:34;14.47;;;7.13;;
34585;SDS011;20816;50.950;11.108;2024-02-26T13:15:02;12.03;;;6.60;;
34585;SDS011;20816;50.950;11.108;2024-02-26T13:17:32;10.93;;;6.03;;
34585;SDS011;20816;50.950;11.108;2024-02-26T13:19:59;12.27;;;5.77;;
34585;SDS011;20816;50.950;11.108;2024-02-26T13:22:26;13.20;;;6.43;;
34585;SDS011;20816;50.950;11.108;2024-02-26T13:24:55;10.90;;;6.47;;
34585;SDS011;20816;50.950;11.108;2024-02-26T13:27:23;14.07;;;7.30;;
34585;SDS011;20816;50.950;11.108;2024-02-26T13:30:09;14.97;;;6.53;;
34585;SDS011;20816;50.950;11.108;2024-02-26T13:32:38;14.20;;;7.27;;
34585;SDS011;20816;50.950;11.108;2024-02-26T13:35:10;13.57;;;6.53;;
34585;SDS011;20816;50.950;11.108;2024-02-26T13:37:39;9.73;;;5.70;;
34585;SDS011;20816;50.950;11.108;2024-02-26T13:40:06;20.27;;;9.80;;
34585;SDS011;20816;50.950;11.108;2024-02-26T13:42:37;22.30;;;12.77;;
34585;SDS011;20816;50.950;11.108;2024-02-26T13:45:05;11.00;;;6.67;;
34585;SDS011;20816;50.950;11.108;2024-02-26T13:47:33;10.90;;;6.30;;
34585;SDS011;20816;50.950;11.108;2024-02-26T13:50:01;14.60;;;6.53;;
34585;SDS011;20816;50.950;11.108;2024-02-26T13:52:28;16.67;;;8.17;;
34585;SDS011;20816;50.950;11.108;2024-02-26T13:54:55;9.93;;;6.10;;
34585;SDS011;20816;50.950;11.108;2024-02-26T13:57:22;10.87;;;6.80;;
34585;SDS011;20816;50.950;11.108;2024-02-26T13:59:49;12.40;;;7.33;;
34585;SDS011;20816;50.950;11.108;2024-02-26T14:02:16;14.17;;;6.77;;
34585;SDS011;20816;50.950;11.108;2024-02-26T14:04:43;10.93;;;6.40;;
34585;SDS011;20816;50.950;11.108;2024-02-26T14:07:11;16.33;;;6.13;;
34585;SDS011;20816;50.950;11.108;2024-02-26T14:09:38;10.57;;;6.83;;
34585;SDS011;20816;50.950;11.108;2024-02-26T14:12:15;12.70;;;7.13;;
34585;SDS011;20816;50.950;11.108;2024-02-26T14:14:44;11.50;;;6.17;;
34585;SDS011;20816;50.950;11.108;2024-02-26T14:17:12;11.33;;;6.13;;
34585;SDS011;20816;50.950;11.108;2024-02-26T14:19:39;11.03;;;5.70;;
34585;SDS011;20816;50.950;11.108;2024-02-26T14:22:12;12.60;;;5.83;;
34585;SDS011;20816;50.950;11.108;2024-02-26T14:24:39;8.70;;;5.43;;
34585;SDS011;20816;50.950;11.108;2024-02-26T14:27:08;9.80;;;5.03;;
34585;SDS011;20816;50.950;11.108;2024-02-26T14:29:36;11.67;;;5.67;;
34585;SDS011;20816;50.950;11.108;2024-02-26T14:32:06;9.87;;;6.10;;
34585;SDS011;20816;50.950;11.108;2024-02-26T14:34:33;11.77;;;5.97;;
34585;SDS011;20816;50.950;11.108;2024-02-26T14:37:00;8.10;;;4.70;;
34585;SDS011;20816;50.950;11.108;2024-02-26T14:39:26;9.03;;;5.30;;